sensor_id;sensor_type;location;lat;lon;timestamp;temperature;humidity
20735;DHT22;10528;52.124;5.196;2022-09-09T00:01:49;17.00;99.90
20735;DHT22;10528;52.124;5.196;2022-09-09T00:15:59;16.90;99.90
20735;DHT22;10528;52.124;5.196;2022-09-09T00:22:07;16.90;99.90
20735;DHT22;10528;52.124;5.196;2022-09-09T00:24:42;16.90;99.90
20735;DHT22;10528;52.124;5.196;2022-09-09T00:27:27;16.80;99.90
20735;DHT22;10528;52.124;5.196;2022-09-09T00:30:22;16.80;99.90
20735;DHT22;10528;52.124;5.196;2022-09-09T00:32:55;16.80;99.90
20735;DHT22;10528;52.124;5.196;2022-09-09T00:35:30;16.80;99.90
20735;DHT22;10528;52.124;5.196;2022-09-09T00:38:15;16.80;99.90
20735;DHT22;10528;52.124;5.196;2022-09-09T00:43:33;16.70;99.90
20735;DHT22;10528;52.124;5.196;2022-09-09T00:46:21;16.70;99.90
20735;DHT22;10528;52.124;5.196;2022-09-09T00:55:25;16.60;99.90
20735;DHT22;10528;52.124;5.196;2022-09-09T00:58:00;16.60;99.90
20735;DHT22;10528;52.124;5.196;2022-09-09T01:00:29;16.60;99.90
20735;DHT22;10528;52.124;5.196;2022-09-09T01:03:18;16.60;99.90
20735;DHT22;10528;52.124;5.196;2022-09-09T01:12:01;16.50;99.90
20735;DHT22;10528;52.124;5.196;2022-09-09T01:17:44;16.40;99.90
20735;DHT22;10528;52.124;5.196;2022-09-09T01:20:26;16.40;99.90
20735;DHT22;10528;52.124;5.196;2022-09-09T01:28:53;16.30;99.90
20735;DHT22;10528;52.124;5.196;2022-09-09T01:31:32;16.30;99.90
20735;DHT22;10528;52.124;5.196;2022-09-09T01:34:13;16.30;99.90
20735;DHT22;10528;52.124;5.196;2022-09-09T01:39:41;16.20;99.90
20735;DHT22;10528;52.124;5.196;2022-09-09T01:42:13;16.20;99.90
20735;DHT22;10528;52.124;5.196;2022-09-09T01:44:43;16.20;99.90
20735;DHT22;10528;52.124;5.196;2022-09-09T01:47:10;16.20;99.90
20735;DHT22;10528;52.124;5.196;2022-09-09T01:49:53;16.10;99.90
20735;DHT22;10528;52.124;5.196;2022-09-09T01:52:24;16.10;99.90
20735;DHT22;10528;52.124;5.196;2022-09-09T01:54:51;16.10;99.90
20735;DHT22;10528;52.124;5.196;2022-09-09T01:57:29;16.00;99.90
20735;DHT22;10528;52.124;5.196;2022-09-09T02:00:05;16.00;99.90
20735;DHT22;10528;52.124;5.196;2022-09-09T02:02:54;16.10;99.90
20735;DHT22;10528;52.124;5.196;2022-09-09T02:05:40;16.00;99.90
20735;DHT22;10528;52.124;5.196;2022-09-09T02:08:21;15.90;99.90
20735;DHT22;10528;52.124;5.196;2022-09-09T02:11:20;16.00;99.90
20735;DHT22;10528;52.124;5.196;2022-09-09T02:14:03;16.00;99.90
20735;DHT22;10528;52.124;5.196;2022-09-09T02:16:44;15.90;99.90
20735;DHT22;10528;52.124;5.196;2022-09-09T02:19:27;15.90;99.90
20735;DHT22;10528;52.124;5.196;2022-09-09T02:22:05;15.90;99.90
20735;DHT22;10528;52.124;5.196;2022-09-09T02:24:37;15.90;99.90
20735;DHT22;10528;52.124;5.196;2022-09-09T02:27:18;15.90;99.90
20735;DHT22;10528;52.124;5.196;2022-09-09T02:29:46;15.90;99.90
20735;DHT22;10528;52.124;5.196;2022-09-09T02:32:23;15.90;99.90
20735;DHT22;10528;52.124;5.196;2022-09-09T02:35:04;15.80;99.90
20735;DHT22;10528;52.124;5.196;2022-09-09T02:37:39;15.80;99.90
20735;DHT22;10528;52.124;5.196;2022-09-09T02:40:10;15.90;99.90
20735;DHT22;10528;52.124;5.196;2022-09-09T02:42:43;15.80;99.90
20735;DHT22;10528;52.124;5.196;2022-09-09T02:45:24;15.90;99.90
20735;DHT22;10528;52.124;5.196;2022-09-09T02:48:14;15.90;99.90
20735;DHT22;10528;52.124;5.196;2022-09-09T02:51:05;15.80;99.90
20735;DHT22;10528;52.124;5.196;2022-09-09T02:56:20;15.80;99.90
20735;DHT22;10528;52.124;5.196;2022-09-09T02:58:54;15.80;99.90
20735;DHT22;10528;52.124;5.196;2022-09-09T03:01:22;15.70;99.90
20735;DHT22;10528;52.124;5.196;2022-09-09T03:03:49;15.70;99.90
20735;DHT22;10528;52.124;5.196;2022-09-09T03:06:17;15.70;99.90
20735;DHT22;10528;52.124;5.196;2022-09-09T03:08:49;15.70;99.90
20735;DHT22;10528;52.124;5.196;2022-09-09T03:11:21;15.70;99.90
20735;DHT22;10528;52.124;5.196;2022-09-09T03:13:48;15.70;99.90
20735;DHT22;10528;52.124;5.196;2022-09-09T03:16:15;15.70;99.90
20735;DHT22;10528;52.124;5.196;2022-09-09T03:18:46;15.60;99.90
20735;DHT22;10528;52.124;5.196;2022-09-09T03:21:13;15.60;99.90
20735;DHT22;10528;52.124;5.196;2022-09-09T03:23:41;15.70;99.90
20735;DHT22;10528;52.124;5.196;2022-09-09T03:26:08;15.70;99.90
20735;DHT22;10528;52.124;5.196;2022-09-09T03:28:41;15.60;99.90
20735;DHT22;10528;52.124;5.196;2022-09-09T03:31:09;15.60;99.90
20735;DHT22;10528;52.124;5.196;2022-09-09T03:33:39;15.70;99.90
20735;DHT22;10528;52.124;5.196;2022-09-09T03:36:10;15.60;99.90
20735;DHT22;10528;52.124;5.196;2022-09-09T03:38:37;15.60;99.90
20735;DHT22;10528;52.124;5.196;2022-09-09T03:41:05;15.50;99.90
20735;DHT22;10528;52.124;5.196;2022-09-09T03:43:33;15.50;99.90
20735;DHT22;10528;52.124;5.196;2022-09-09T03:46:00;15.50;99.90
20735;DHT22;10528;52.124;5.196;2022-09-09T03:48:28;15.50;99.90
20735;DHT22;10528;52.124;5.196;2022-09-09T03:50:56;15.50;99.90
20735;DHT22;10528;52.124;5.196;2022-09-09T03:53:24;15.50;99.90
20735;DHT22;10528;52.124;5.196;2022-09-09T03:55:54;15.50;99.90
20735;DHT22;10528;52.124;5.196;2022-09-09T03:58:25;15.50;99.90
20735;DHT22;10528;52.124;5.196;2022-09-09T04:01:05;15.50;99.90
20735;DHT22;10528;52.124;5.196;2022-09-09T04:03:36;15.50;99.90
20735;DHT22;10528;52.124;5.196;2022-09-09T04:06:04;15.40;99.90
20735;DHT22;10528;52.124;5.196;2022-09-09T04:08:33;15.50;99.90
20735;DHT22;10528;52.124;5.196;2022-09-09T04:11:02;15.50;99.90
20735;DHT22;10528;52.124;5.196;2022-09-09T04:13:32;15.50;99.90
20735;DHT22;10528;52.124;5.196;2022-09-09T04:16:02;15.50;99.90
20735;DHT22;10528;52.124;5.196;2022-09-09T04:18:32;15.40;99.90
20735;DHT22;10528;52.124;5.196;2022-09-09T04:21:00;15.40;99.90
20735;DHT22;10528;52.124;5.196;2022-09-09T04:23:29;15.40;99.90
20735;DHT22;10528;52.124;5.196;2022-09-09T04:25:58;15.40;99.90
20735;DHT22;10528;52.124;5.196;2022-09-09T04:28:28;15.40;99.90
20735;DHT22;10528;52.124;5.196;2022-09-09T04:31:07;15.40;99.90
20735;DHT22;10528;52.124;5.196;2022-09-09T04:33:37;15.50;99.90
20735;DHT22;10528;52.124;5.196;2022-09-09T04:36:07;15.50;99.90
20735;DHT22;10528;52.124;5.196;2022-09-09T04:38:35;15.40;99.90
20735;DHT22;10528;52.124;5.196;2022-09-09T04:41:03;15.40;99.90
20735;DHT22;10528;52.124;5.196;2022-09-09T04:43:32;15.40;99.90
20735;DHT22;10528;52.124;5.196;2022-09-09T04:46:01;15.40;99.90
20735;DHT22;10528;52.124;5.196;2022-09-09T04:48:29;15.40;99.90
20735;DHT22;10528;52.124;5.196;2022-09-09T04:51:01;15.40;99.90
20735;DHT22;10528;52.124;5.196;2022-09-09T04:53:31;15.40;99.90
20735;DHT22;10528;52.124;5.196;2022-09-09T04:56:09;15.40;99.90
20735;DHT22;10528;52.124;5.196;2022-09-09T04:58:41;15.40;99.90
20735;DHT22;10528;52.124;5.196;2022-09-09T05:01:16;15.30;99.90
20735;DHT22;10528;52.124;5.196;2022-09-09T05:03:46;15.30;99.90
20735;DHT22;10528;52.124;5.196;2022-09-09T05:06:19;15.30;99.90
20735;DHT22;10528;52.124;5.196;2022-09-09T05:08:50;15.30;99.90
20735;DHT22;10528;52.124;5.196;2022-09-09T05:11:23;15.30;99.90
20735;DHT22;10528;52.124;5.196;2022-09-09T05:13:58;15.30;99.90
20735;DHT22;10528;52.124;5.196;2022-09-09T05:16:26;15.30;99.90
20735;DHT22;10528;52.124;5.196;2022-09-09T05:18:54;15.30;99.90
20735;DHT22;10528;52.124;5.196;2022-09-09T05:21:22;15.30;99.90
20735;DHT22;10528;52.124;5.196;2022-09-09T05:23:51;15.30;99.90
20735;DHT22;10528;52.124;5.196;2022-09-09T05:26:21;15.30;99.90
20735;DHT22;10528;52.124;5.196;2022-09-09T05:28:50;15.40;99.90
20735;DHT22;10528;52.124;5.196;2022-09-09T05:31:18;15.40;99.90
20735;DHT22;10528;52.124;5.196;2022-09-09T05:33:49;15.40;99.90
20735;DHT22;10528;52.124;5.196;2022-09-09T05:36:18;15.40;99.90
20735;DHT22;10528;52.124;5.196;2022-09-09T05:38:50;15.50;99.90
20735;DHT22;10528;52.124;5.196;2022-09-09T05:41:19;15.40;99.90
20735;DHT22;10528;52.124;5.196;2022-09-09T05:43:47;15.40;99.90
20735;DHT22;10528;52.124;5.196;2022-09-09T05:46:23;15.40;99.90
20735;DHT22;10528;52.124;5.196;2022-09-09T05:48:53;15.40;99.90
20735;DHT22;10528;52.124;5.196;2022-09-09T05:51:27;15.50;99.90
20735;DHT22;10528;52.124;5.196;2022-09-09T05:53:57;15.60;99.90
20735;DHT22;10528;52.124;5.196;2022-09-09T05:56:31;15.60;99.90
20735;DHT22;10528;52.124;5.196;2022-09-09T05:58:59;15.70;99.90
20735;DHT22;10528;52.124;5.196;2022-09-09T06:01:33;15.70;99.90
20735;DHT22;10528;52.124;5.196;2022-09-09T06:04:02;15.70;99.90
20735;DHT22;10528;52.124;5.196;2022-09-09T06:06:33;15.70;99.90
20735;DHT22;10528;52.124;5.196;2022-09-09T06:09:15;15.80;99.90
20735;DHT22;10528;52.124;5.196;2022-09-09T06:11:43;15.80;99.90
20735;DHT22;10528;52.124;5.196;2022-09-09T06:14:11;15.90;99.90
20735;DHT22;10528;52.124;5.196;2022-09-09T06:16:39;15.90;99.90
20735;DHT22;10528;52.124;5.196;2022-09-09T06:19:13;15.90;99.90
20735;DHT22;10528;52.124;5.196;2022-09-09T06:21:40;15.90;99.90
20735;DHT22;10528;52.124;5.196;2022-09-09T06:24:10;16.20;99.90
20735;DHT22;10528;52.124;5.196;2022-09-09T06:26:40;16.50;99.90
20735;DHT22;10528;52.124;5.196;2022-09-09T06:29:10;16.80;99.90
20735;DHT22;10528;52.124;5.196;2022-09-09T06:31:38;17.00;99.90
20735;DHT22;10528;52.124;5.196;2022-09-09T06:34:12;17.20;99.90
20735;DHT22;10528;52.124;5.196;2022-09-09T06:36:43;17.10;99.90
20735;DHT22;10528;52.124;5.196;2022-09-09T06:39:12;17.20;99.90
20735;DHT22;10528;52.124;5.196;2022-09-09T06:41:41;17.20;99.90
20735;DHT22;10528;52.124;5.196;2022-09-09T06:44:27;17.10;99.90
20735;DHT22;10528;52.124;5.196;2022-09-09T06:47:00;17.10;99.90
20735;DHT22;10528;52.124;5.196;2022-09-09T06:49:27;17.30;99.90
20735;DHT22;10528;52.124;5.196;2022-09-09T06:51:54;17.30;99.90
20735;DHT22;10528;52.124;5.196;2022-09-09T06:54:21;17.40;99.90
20735;DHT22;10528;52.124;5.196;2022-09-09T06:56:49;17.50;99.90
20735;DHT22;10528;52.124;5.196;2022-09-09T06:59:21;17.60;99.90
20735;DHT22;10528;52.124;5.196;2022-09-09T07:01:48;17.50;99.90
20735;DHT22;10528;52.124;5.196;2022-09-09T07:04:22;17.50;99.90
20735;DHT22;10528;52.124;5.196;2022-09-09T07:06:48;17.80;99.90
20735;DHT22;10528;52.124;5.196;2022-09-09T07:09:20;17.90;99.90
20735;DHT22;10528;52.124;5.196;2022-09-09T07:11:51;17.90;99.90
20735;DHT22;10528;52.124;5.196;2022-09-09T07:14:21;18.20;99.90
20735;DHT22;10528;52.124;5.196;2022-09-09T07:16:54;18.50;99.90
20735;DHT22;10528;52.124;5.196;2022-09-09T07:19:26;18.60;99.90
20735;DHT22;10528;52.124;5.196;2022-09-09T07:21:54;18.50;99.90
20735;DHT22;10528;52.124;5.196;2022-09-09T07:24:22;18.50;99.90
20735;DHT22;10528;52.124;5.196;2022-09-09T07:26:50;18.50;99.90
20735;DHT22;10528;52.124;5.196;2022-09-09T07:29:18;18.30;99.90
20735;DHT22;10528;52.124;5.196;2022-09-09T07:31:47;18.20;99.90
20735;DHT22;10528;52.124;5.196;2022-09-09T07:34:19;18.20;99.90
20735;DHT22;10528;52.124;5.196;2022-09-09T07:36:47;18.10;99.90
20735;DHT22;10528;52.124;5.196;2022-09-09T07:39:16;18.00;99.90
20735;DHT22;10528;52.124;5.196;2022-09-09T07:41:48;18.20;99.90
20735;DHT22;10528;52.124;5.196;2022-09-09T07:44:20;18.20;99.90
20735;DHT22;10528;52.124;5.196;2022-09-09T07:46:55;18.20;99.90
20735;DHT22;10528;52.124;5.196;2022-09-09T07:49:28;18.20;99.90
20735;DHT22;10528;52.124;5.196;2022-09-09T07:51:59;18.20;99.90
20735;DHT22;10528;52.124;5.196;2022-09-09T07:54:27;18.30;99.90
20735;DHT22;10528;52.124;5.196;2022-09-09T07:56:54;18.20;99.90
20735;DHT22;10528;52.124;5.196;2022-09-09T07:59:25;18.20;99.90
20735;DHT22;10528;52.124;5.196;2022-09-09T08:01:53;18.20;99.90
20735;DHT22;10528;52.124;5.196;2022-09-09T08:04:24;18.30;99.90
20735;DHT22;10528;52.124;5.196;2022-09-09T08:06:56;18.20;99.90
20735;DHT22;10528;52.124;5.196;2022-09-09T08:09:26;18.10;99.90
20735;DHT22;10528;52.124;5.196;2022-09-09T08:12:07;18.10;99.90
20735;DHT22;10528;52.124;5.196;2022-09-09T08:14:35;18.00;99.90
20735;DHT22;10528;52.124;5.196;2022-09-09T08:17:02;18.10;99.90
20735;DHT22;10528;52.124;5.196;2022-09-09T08:19:31;18.30;99.90
20735;DHT22;10528;52.124;5.196;2022-09-09T08:22:01;18.30;99.90
20735;DHT22;10528;52.124;5.196;2022-09-09T08:24:31;18.10;99.90
20735;DHT22;10528;52.124;5.196;2022-09-09T08:26:58;18.00;99.90
20735;DHT22;10528;52.124;5.196;2022-09-09T08:29:25;18.20;99.90
20735;DHT22;10528;52.124;5.196;2022-09-09T08:31:54;18.30;99.90
20735;DHT22;10528;52.124;5.196;2022-09-09T08:34:24;18.30;99.90
20735;DHT22;10528;52.124;5.196;2022-09-09T08:36:53;18.20;99.90
20735;DHT22;10528;52.124;5.196;2022-09-09T08:39:27;18.30;99.90
20735;DHT22;10528;52.124;5.196;2022-09-09T08:42:09;18.50;99.90
20735;DHT22;10528;52.124;5.196;2022-09-09T08:50:37;18.40;99.90
20735;DHT22;10528;52.124;5.196;2022-09-09T08:53:16;18.20;99.90
20735;DHT22;10528;52.124;5.196;2022-09-09T08:55:56;18.40;99.90
20735;DHT22;10528;52.124;5.196;2022-09-09T08:58:52;18.40;99.90
20735;DHT22;10528;52.124;5.196;2022-09-09T09:07:32;18.20;99.90
20735;DHT22;10528;52.124;5.196;2022-09-09T09:13:21;18.10;99.90
20735;DHT22;10528;52.124;5.196;2022-09-09T09:16:02;18.20;99.90
20735;DHT22;10528;52.124;5.196;2022-09-09T09:18:40;18.20;99.90
20735;DHT22;10528;52.124;5.196;2022-09-09T09:21:25;18.10;99.90
20735;DHT22;10528;52.124;5.196;2022-09-09T09:24:16;18.20;99.90
20735;DHT22;10528;52.124;5.196;2022-09-09T09:26:48;18.10;99.90
20735;DHT22;10528;52.124;5.196;2022-09-09T09:29:19;18.20;99.90
20735;DHT22;10528;52.124;5.196;2022-09-09T09:31:55;18.00;99.90
20735;DHT22;10528;52.124;5.196;2022-09-09T09:34:25;18.20;99.90
20735;DHT22;10528;52.124;5.196;2022-09-09T09:36:59;18.20;99.90
20735;DHT22;10528;52.124;5.196;2022-09-09T09:39:33;18.10;99.90
20735;DHT22;10528;52.124;5.196;2022-09-09T09:42:26;18.30;99.90
20735;DHT22;10528;52.124;5.196;2022-09-09T09:44:55;18.20;99.90
20735;DHT22;10528;52.124;5.196;2022-09-09T09:47:23;18.20;99.90
20735;DHT22;10528;52.124;5.196;2022-09-09T09:50:19;18.10;99.90
20735;DHT22;10528;52.124;5.196;2022-09-09T09:53:00;18.00;99.90
20735;DHT22;10528;52.124;5.196;2022-09-09T09:55:35;17.90;99.90
20735;DHT22;10528;52.124;5.196;2022-09-09T09:58:06;17.90;99.90
20735;DHT22;10528;52.124;5.196;2022-09-09T10:00:50;17.80;99.90
20735;DHT22;10528;52.124;5.196;2022-09-09T10:03:24;17.80;99.90
20735;DHT22;10528;52.124;5.196;2022-09-09T10:05:53;17.80;99.90
20735;DHT22;10528;52.124;5.196;2022-09-09T10:08:27;17.80;99.90
20735;DHT22;10528;52.124;5.196;2022-09-09T10:19:42;17.90;99.90
20735;DHT22;10528;52.124;5.196;2022-09-09T10:22:39;18.00;99.90
20735;DHT22;10528;52.124;5.196;2022-09-09T10:29:06;18.00;99.90
20735;DHT22;10528;52.124;5.196;2022-09-09T10:31:45;17.90;99.90
20735;DHT22;10528;52.124;5.196;2022-09-09T10:34:55;17.90;99.90
20735;DHT22;10528;52.124;5.196;2022-09-09T10:43:32;18.30;99.90
20735;DHT22;10528;52.124;5.196;2022-09-09T10:46:12;18.30;99.90
20735;DHT22;10528;52.124;5.196;2022-09-09T10:52:28;18.10;99.90
20735;DHT22;10528;52.124;5.196;2022-09-09T10:55:20;18.20;99.90
20735;DHT22;10528;52.124;5.196;2022-09-09T10:57:58;18.30;99.90
20735;DHT22;10528;52.124;5.196;2022-09-09T11:00:44;18.40;99.90
20735;DHT22;10528;52.124;5.196;2022-09-09T11:03:25;18.50;99.90
20735;DHT22;10528;52.124;5.196;2022-09-09T11:06:00;18.50;99.90
20735;DHT22;10528;52.124;5.196;2022-09-09T11:08:34;18.60;99.90
20735;DHT22;10528;52.124;5.196;2022-09-09T11:11:11;18.60;99.90
20735;DHT22;10528;52.124;5.196;2022-09-09T11:13:53;18.50;99.90
20735;DHT22;10528;52.124;5.196;2022-09-09T11:16:44;18.60;99.90
20735;DHT22;10528;52.124;5.196;2022-09-09T11:19:41;18.60;99.90
20735;DHT22;10528;52.124;5.196;2022-09-09T11:24:54;18.60;99.90
20735;DHT22;10528;52.124;5.196;2022-09-09T11:44:39;18.60;99.90
20735;DHT22;10528;52.124;5.196;2022-09-09T11:47:30;18.60;99.90
20735;DHT22;10528;52.124;5.196;2022-09-09T11:52:43;18.40;99.90
20735;DHT22;10528;52.124;5.196;2022-09-09T11:55:31;18.50;99.90
20735;DHT22;10528;52.124;5.196;2022-09-09T12:00:36;18.30;99.90
20735;DHT22;10528;52.124;5.196;2022-09-09T12:03:45;18.30;99.90
20735;DHT22;10528;52.124;5.196;2022-09-09T12:06:19;18.30;99.90
20735;DHT22;10528;52.124;5.196;2022-09-09T12:11:36;18.40;99.90
20735;DHT22;10528;52.124;5.196;2022-09-09T12:14:03;18.40;99.90
20735;DHT22;10528;52.124;5.196;2022-09-09T12:16:33;18.30;99.90
20735;DHT22;10528;52.124;5.196;2022-09-09T12:19:14;18.30;99.90
20735;DHT22;10528;52.124;5.196;2022-09-09T12:22:11;18.20;99.90
20735;DHT22;10528;52.124;5.196;2022-09-09T12:24:59;18.20;99.90
20735;DHT22;10528;52.124;5.196;2022-09-09T12:28:04;18.30;99.90
20735;DHT22;10528;52.124;5.196;2022-09-09T12:31:01;18.50;99.90
20735;DHT22;10528;52.124;5.196;2022-09-09T12:33:36;18.60;99.90
20735;DHT22;10528;52.124;5.196;2022-09-09T12:36:12;18.60;99.90
20735;DHT22;10528;52.124;5.196;2022-09-09T12:38:43;18.60;99.90
20735;DHT22;10528;52.124;5.196;2022-09-09T12:41:27;18.80;99.90
20735;DHT22;10528;52.124;5.196;2022-09-09T12:44:06;18.90;99.90
20735;DHT22;10528;52.124;5.196;2022-09-09T12:46:39;19.10;99.90
20735;DHT22;10528;52.124;5.196;2022-09-09T12:49:30;19.30;99.90
20735;DHT22;10528;52.124;5.196;2022-09-09T12:52:07;19.30;99.90
20735;DHT22;10528;52.124;5.196;2022-09-09T12:54:44;19.50;99.90
20735;DHT22;10528;52.124;5.196;2022-09-09T12:57:14;19.40;99.90
20735;DHT22;10528;52.124;5.196;2022-09-09T12:59:43;19.40;99.90
20735;DHT22;10528;52.124;5.196;2022-09-09T13:02:23;19.30;99.90
20735;DHT22;10528;52.124;5.196;2022-09-09T13:04:52;19.20;99.90
20735;DHT22;10528;52.124;5.196;2022-09-09T13:07:21;19.10;99.90
20735;DHT22;10528;52.124;5.196;2022-09-09T13:09:48;19.10;99.90
20735;DHT22;10528;52.124;5.196;2022-09-09T13:12:20;19.10;99.90
20735;DHT22;10528;52.124;5.196;2022-09-09T13:14:52;19.10;99.90
20735;DHT22;10528;52.124;5.196;2022-09-09T13:17:24;19.00;99.90
20735;DHT22;10528;52.124;5.196;2022-09-09T13:19:55;19.00;99.90
20735;DHT22;10528;52.124;5.196;2022-09-09T13:22:35;19.10;99.90
20735;DHT22;10528;52.124;5.196;2022-09-09T13:27:50;19.30;99.90
20735;DHT22;10528;52.124;5.196;2022-09-09T13:30:22;19.40;99.90
20735;DHT22;10528;52.124;5.196;2022-09-09T13:33:21;19.60;99.90
20735;DHT22;10528;52.124;5.196;2022-09-09T13:38:29;19.60;99.90
20735;DHT22;10528;52.124;5.196;2022-09-09T13:43:42;19.50;99.90
20735;DHT22;10528;52.124;5.196;2022-09-09T13:46:32;19.30;99.90
20735;DHT22;10528;52.124;5.196;2022-09-09T13:49:24;19.40;99.90
20735;DHT22;10528;52.124;5.196;2022-09-09T13:51:50;19.30;99.90
20735;DHT22;10528;52.124;5.196;2022-09-09T13:54:20;19.30;99.90
20735;DHT22;10528;52.124;5.196;2022-09-09T13:56:47;19.30;99.90
20735;DHT22;10528;52.124;5.196;2022-09-09T13:59:18;19.30;99.90
20735;DHT22;10528;52.124;5.196;2022-09-09T14:01:46;19.30;99.90
20735;DHT22;10528;52.124;5.196;2022-09-09T14:04:14;19.20;99.90
20735;DHT22;10528;52.124;5.196;2022-09-09T14:06:42;19.20;99.90
20735;DHT22;10528;52.124;5.196;2022-09-09T14:09:12;19.20;99.90
20735;DHT22;10528;52.124;5.196;2022-09-09T14:11:40;19.10;99.90
20735;DHT22;10528;52.124;5.196;2022-09-09T14:14:07;19.10;99.90
20735;DHT22;10528;52.124;5.196;2022-09-09T14:16:35;18.90;99.90
20735;DHT22;10528;52.124;5.196;2022-09-09T14:19:03;18.90;99.90
20735;DHT22;10528;52.124;5.196;2022-09-09T14:21:30;18.80;99.90
20735;DHT22;10528;52.124;5.196;2022-09-09T14:23:57;18.70;99.90
20735;DHT22;10528;52.124;5.196;2022-09-09T14:26:24;18.70;99.90
20735;DHT22;10528;52.124;5.196;2022-09-09T14:28:52;18.60;99.90
20735;DHT22;10528;52.124;5.196;2022-09-09T14:31:22;18.50;99.90
20735;DHT22;10528;52.124;5.196;2022-09-09T14:33:50;18.50;99.90
20735;DHT22;10528;52.124;5.196;2022-09-09T14:36:17;18.50;99.90
20735;DHT22;10528;52.124;5.196;2022-09-09T14:38:44;18.60;99.90
20735;DHT22;10528;52.124;5.196;2022-09-09T14:41:14;18.70;99.90
20735;DHT22;10528;52.124;5.196;2022-09-09T14:43:46;18.90;99.90
20735;DHT22;10528;52.124;5.196;2022-09-09T14:46:15;18.90;99.90
20735;DHT22;10528;52.124;5.196;2022-09-09T14:48:44;19.10;99.90
20735;DHT22;10528;52.124;5.196;2022-09-09T14:51:13;19.30;99.90
20735;DHT22;10528;52.124;5.196;2022-09-09T14:53:43;19.40;99.90
20735;DHT22;10528;52.124;5.196;2022-09-09T14:56:13;19.50;99.90
20735;DHT22;10528;52.124;5.196;2022-09-09T14:58:44;19.40;99.90
20735;DHT22;10528;52.124;5.196;2022-09-09T15:01:15;19.40;99.90
20735;DHT22;10528;52.124;5.196;2022-09-09T15:03:50;19.30;99.90
20735;DHT22;10528;52.124;5.196;2022-09-09T15:06:19;19.50;99.90
20735;DHT22;10528;52.124;5.196;2022-09-09T15:08:51;19.40;99.90
20735;DHT22;10528;52.124;5.196;2022-09-09T15:11:20;19.40;99.90
20735;DHT22;10528;52.124;5.196;2022-09-09T15:13:51;19.30;99.90
20735;DHT22;10528;52.124;5.196;2022-09-09T15:16:23;19.20;99.90
20735;DHT22;10528;52.124;5.196;2022-09-09T15:18:54;19.20;99.90
20735;DHT22;10528;52.124;5.196;2022-09-09T15:21:25;19.00;99.90
20735;DHT22;10528;52.124;5.196;2022-09-09T15:23:55;19.10;99.90
20735;DHT22;10528;52.124;5.196;2022-09-09T15:26:23;19.20;99.90
20735;DHT22;10528;52.124;5.196;2022-09-09T15:28:50;19.20;99.90
20735;DHT22;10528;52.124;5.196;2022-09-09T15:31:24;19.00;99.90
20735;DHT22;10528;52.124;5.196;2022-09-09T15:33:57;18.90;99.90
20735;DHT22;10528;52.124;5.196;2022-09-09T15:36:35;18.90;99.90
20735;DHT22;10528;52.124;5.196;2022-09-09T15:39:15;18.90;99.90
20735;DHT22;10528;52.124;5.196;2022-09-09T15:41:44;18.90;99.90
20735;DHT22;10528;52.124;5.196;2022-09-09T15:44:12;19.00;99.90
20735;DHT22;10528;52.124;5.196;2022-09-09T15:46:49;19.00;99.90
20735;DHT22;10528;52.124;5.196;2022-09-09T15:49:22;19.10;99.90
20735;DHT22;10528;52.124;5.196;2022-09-09T15:51:54;19.00;99.90
20735;DHT22;10528;52.124;5.196;2022-09-09T15:54:25;18.90;99.90
20735;DHT22;10528;52.124;5.196;2022-09-09T15:56:57;18.90;99.90
20735;DHT22;10528;52.124;5.196;2022-09-09T15:59:28;18.90;99.90
20735;DHT22;10528;52.124;5.196;2022-09-09T16:01:56;18.90;99.90
20735;DHT22;10528;52.124;5.196;2022-09-09T16:04:27;18.90;99.90
20735;DHT22;10528;52.124;5.196;2022-09-09T16:07:03;19.00;99.90
20735;DHT22;10528;52.124;5.196;2022-09-09T16:09:32;19.00;99.90
20735;DHT22;10528;52.124;5.196;2022-09-09T16:12:01;18.90;99.90
20735;DHT22;10528;52.124;5.196;2022-09-09T16:14:32;19.00;99.90
20735;DHT22;10528;52.124;5.196;2022-09-09T16:17:03;19.00;99.90
20735;DHT22;10528;52.124;5.196;2022-09-09T16:19:30;19.10;99.90
20735;DHT22;10528;52.124;5.196;2022-09-09T16:21:58;19.00;99.90
20735;DHT22;10528;52.124;5.196;2022-09-09T16:24:25;19.00;99.90
20735;DHT22;10528;52.124;5.196;2022-09-09T16:26:54;19.20;99.90
20735;DHT22;10528;52.124;5.196;2022-09-09T16:29:22;19.00;99.90
20735;DHT22;10528;52.124;5.196;2022-09-09T16:31:50;18.90;99.90
20735;DHT22;10528;52.124;5.196;2022-09-09T16:34:18;19.20;99.90
20735;DHT22;10528;52.124;5.196;2022-09-09T16:36:46;19.20;99.90
20735;DHT22;10528;52.124;5.196;2022-09-09T16:39:17;19.00;99.90
20735;DHT22;10528;52.124;5.196;2022-09-09T16:41:46;18.90;99.90
20735;DHT22;10528;52.124;5.196;2022-09-09T16:44:17;18.90;99.90
20735;DHT22;10528;52.124;5.196;2022-09-09T16:46:47;18.90;99.90
20735;DHT22;10528;52.124;5.196;2022-09-09T16:49:25;18.80;99.90
20735;DHT22;10528;52.124;5.196;2022-09-09T16:51:53;18.80;99.90
20735;DHT22;10528;52.124;5.196;2022-09-09T16:54:23;18.70;99.90
20735;DHT22;10528;52.124;5.196;2022-09-09T16:56:54;18.70;99.90
20735;DHT22;10528;52.124;5.196;2022-09-09T16:59:21;18.70;99.90
20735;DHT22;10528;52.124;5.196;2022-09-09T17:01:51;18.70;99.90
20735;DHT22;10528;52.124;5.196;2022-09-09T17:04:21;18.60;99.90
20735;DHT22;10528;52.124;5.196;2022-09-09T17:06:53;18.60;99.90
20735;DHT22;10528;52.124;5.196;2022-09-09T17:09:21;18.60;99.90
20735;DHT22;10528;52.124;5.196;2022-09-09T17:11:50;18.60;99.90
20735;DHT22;10528;52.124;5.196;2022-09-09T17:14:19;18.50;99.90
20735;DHT22;10528;52.124;5.196;2022-09-09T17:16:48;18.50;99.90
20735;DHT22;10528;52.124;5.196;2022-09-09T17:19:15;18.50;99.90
20735;DHT22;10528;52.124;5.196;2022-09-09T17:21:42;18.60;99.90
20735;DHT22;10528;52.124;5.196;2022-09-09T17:24:30;18.50;99.90
20735;DHT22;10528;52.124;5.196;2022-09-09T17:26:57;18.50;99.90
20735;DHT22;10528;52.124;5.196;2022-09-09T17:29:24;18.60;99.90
20735;DHT22;10528;52.124;5.196;2022-09-09T17:31:52;18.50;99.90
20735;DHT22;10528;52.124;5.196;2022-09-09T17:34:19;18.50;99.90
20735;DHT22;10528;52.124;5.196;2022-09-09T17:36:46;18.50;99.90
20735;DHT22;10528;52.124;5.196;2022-09-09T17:39:13;18.50;99.90
20735;DHT22;10528;52.124;5.196;2022-09-09T17:41:40;18.50;99.90
20735;DHT22;10528;52.124;5.196;2022-09-09T17:44:08;18.60;99.90
20735;DHT22;10528;52.124;5.196;2022-09-09T17:46:38;18.50;99.90
20735;DHT22;10528;52.124;5.196;2022-09-09T17:49:12;18.50;99.90
20735;DHT22;10528;52.124;5.196;2022-09-09T17:51:42;18.50;99.90
20735;DHT22;10528;52.124;5.196;2022-09-09T17:54:12;18.50;99.90
20735;DHT22;10528;52.124;5.196;2022-09-09T17:56:41;18.50;99.90
20735;DHT22;10528;52.124;5.196;2022-09-09T17:59:10;18.50;99.90
20735;DHT22;10528;52.124;5.196;2022-09-09T18:01:41;18.40;99.90
20735;DHT22;10528;52.124;5.196;2022-09-09T18:04:12;18.40;99.90
20735;DHT22;10528;52.124;5.196;2022-09-09T18:06:43;18.40;99.90